createdAt,value
2023-03-27T00:00:24.481Z,1026.81
2023-03-27T00:01:25.880Z,1026.79
2023-03-27T00:02:27.305Z,1026.79
2023-03-27T00:03:28.827Z,1026.85
2023-03-27T00:04:30.175Z,1026.91
2023-03-27T00:05:32.379Z,1026.84
2023-03-27T00:06:33.769Z,1026.81
2023-03-27T00:07:35.173Z,1026.88
2023-03-27T00:08:36.562Z,1026.84
2023-03-27T00:09:37.961Z,1026.74
2023-03-27T00:10:39.358Z,1026.81
2023-03-27T00:11:40.751Z,1026.75
2023-03-27T00:12:42.144Z,1026.82
2023-03-27T00:13:49.979Z,1026.85
2023-03-27T00:14:45.937Z,1026.78
2023-03-27T00:15:47.335Z,1026.76
2023-03-27T00:16:48.769Z,1026.81
2023-03-27T00:17:50.265Z,1026.79
2023-03-27T00:18:51.724Z,1026.80
2023-03-27T00:19:53.124Z,1026.73
2023-03-27T00:20:54.783Z,1026.81
2023-03-27T00:21:55.992Z,1026.78
2023-03-27T00:22:57.390Z,1026.78
2023-03-27T00:23:58.859Z,1026.75
2023-03-27T00:25:00.257Z,1026.80
2023-03-27T00:26:01.656Z,1026.77
2023-03-27T00:27:03.051Z,1026.71
2023-03-27T00:28:04.450Z,1026.73
2023-03-27T00:29:05.849Z,1026.76
2023-03-27T00:30:07.404Z,1026.73
2023-03-27T00:31:08.846Z,1026.76
2023-03-27T00:32:10.258Z,1026.64
2023-03-27T00:33:11.650Z,1026.63
2023-03-27T00:34:13.954Z,1026.72
2023-03-27T00:35:15.348Z,1026.71
2023-03-27T00:36:16.792Z,1026.67
2023-03-27T00:37:18.283Z,1026.72
2023-03-27T00:38:19.674Z,1026.71
2023-03-27T00:39:21.074Z,1026.67
2023-03-27T00:40:23.333Z,1026.67
2023-03-27T00:41:25.579Z,1026.73
2023-03-27T00:42:27.065Z,1026.70
2023-03-27T00:43:28.466Z,1026.72
2023-03-27T00:44:29.869Z,1026.73
2023-03-27T00:45:32.108Z,1026.72
2023-03-27T00:46:33.540Z,1026.66
2023-03-27T00:47:34.970Z,1026.68
2023-03-27T00:48:36.358Z,1026.80
2023-03-27T00:49:38.554Z,1026.76
2023-03-27T00:50:39.946Z,1026.72
2023-03-27T00:51:41.336Z,1026.74
2023-03-27T00:52:42.726Z,1026.64
2023-03-27T00:53:44.116Z,1026.69
2023-03-27T00:54:45.509Z,1026.62
2023-03-27T00:55:46.900Z,1026.64
2023-03-27T00:56:48.329Z,1026.65
2023-03-27T00:57:49.722Z,1026.59
2023-03-27T00:58:51.111Z,1026.64
2023-03-27T00:59:52.508Z,1026.67
2023-03-27T01:00:54.042Z,1026.71
2023-03-27T01:01:55.597Z,1026.61
2023-03-27T01:02:57.118Z,1026.62
2023-03-27T01:03:59.392Z,1026.64
2023-03-27T01:05:00.777Z,1026.67
2023-03-27T01:06:02.209Z,1026.60
2023-03-27T01:07:03.639Z,1026.57
2023-03-27T01:08:05.093Z,1026.62
2023-03-27T01:09:06.487Z,1026.57
2023-03-27T01:10:07.901Z,1026.50
2023-03-27T01:11:09.300Z,1026.55
2023-03-27T01:12:10.701Z,1026.53
2023-03-27T01:13:12.080Z,1026.59
2023-03-27T01:14:13.545Z,1026.56
2023-03-27T01:15:14.920Z,1026.50
2023-03-27T01:16:16.384Z,1026.58
2023-03-27T01:17:17.795Z,1026.50
2023-03-27T01:18:19.179Z,1026.53
2023-03-27T01:19:20.583Z,1026.60
2023-03-27T01:20:21.984Z,1026.54
2023-03-27T01:21:23.388Z,1026.59
2023-03-27T01:22:24.785Z,1026.49
2023-03-27T01:23:59.103Z,1026.56
2023-03-27T01:24:28.576Z,1026.54
2023-03-27T01:25:29.969Z,1026.54
2023-03-27T01:26:35.426Z,1026.50
2023-03-27T01:27:34.566Z,1026.53
2023-03-27T01:28:36.955Z,1026.59
2023-03-27T01:29:38.349Z,1026.64
2023-03-27T01:30:39.768Z,1026.64
2023-03-27T01:31:41.239Z,1026.65
2023-03-27T01:32:42.688Z,1026.63
2023-03-27T01:33:44.107Z,1026.67
2023-03-27T01:34:45.503Z,1026.64
2023-03-27T01:35:46.938Z,1026.63
2023-03-27T01:36:49.196Z,1026.68
2023-03-27T01:37:51.448Z,1026.57
2023-03-27T01:38:53.641Z,1026.67
2023-03-27T01:39:55.094Z,1026.57
2023-03-27T01:40:56.708Z,1026.58
2023-03-27T01:41:58.220Z,1026.61
2023-03-27T01:42:59.615Z,1026.55
2023-03-27T01:44:01.015Z,1026.58
2023-03-27T01:45:02.425Z,1026.51
2023-03-27T01:46:03.917Z,1026.53
2023-03-27T01:47:05.312Z,1026.49
2023-03-27T01:48:06.735Z,1026.48
2023-03-27T01:49:08.158Z,1026.49
2023-03-27T01:50:09.575Z,1026.42
2023-03-27T01:51:11.015Z,1026.40
2023-03-27T01:52:13.200Z,1026.41
2023-03-27T01:53:14.590Z,1026.39
2023-03-27T01:54:15.988Z,1026.41
2023-03-27T01:55:17.393Z,1026.27
2023-03-27T01:56:18.905Z,1026.27
2023-03-27T01:57:20.297Z,1026.38
2023-03-27T01:58:21.696Z,1026.29
2023-03-27T01:59:23.944Z,1026.38
2023-03-27T02:00:25.517Z,1026.29
2023-03-27T02:01:26.970Z,1026.31
2023-03-27T02:02:28.426Z,1026.33
2023-03-27T02:03:29.867Z,1026.28
2023-03-27T02:04:31.269Z,1026.25
2023-03-27T02:05:33.456Z,1026.30
2023-03-27T02:06:34.850Z,1026.19
2023-03-27T02:07:36.249Z,1026.23
2023-03-27T02:08:37.650Z,1026.21
2023-03-27T02:09:39.099Z,1026.11
2023-03-27T02:10:40.570Z,1026.08
2023-03-27T02:11:41.970Z,1026.10
2023-03-27T02:12:43.360Z,1026.17
2023-03-27T02:13:44.760Z,1026.04
2023-03-27T02:14:46.160Z,1026.09
2023-03-27T02:15:47.551Z,1026.10
2023-03-27T02:16:49.118Z,1026.09
2023-03-27T02:17:50.664Z,1026.06
2023-03-27T02:18:52.079Z,1026.08
2023-03-27T02:19:53.477Z,1026.14
2023-03-27T02:20:55.808Z,1026.12
2023-03-27T02:21:57.333Z,1026.07
2023-03-27T02:22:58.723Z,1026.02
2023-03-27T02:24:00.128Z,1026.07
2023-03-27T02:25:01.591Z,1026.02
2023-03-27T02:26:03.050Z,1025.98
2023-03-27T02:27:04.447Z,1026.04
2023-03-27T02:28:05.868Z,1025.99
2023-03-27T02:29:07.244Z,1025.97
2023-03-27T02:30:08.647Z,1025.95
2023-03-27T02:31:33.020Z,1025.97
2023-03-27T02:32:12.455Z,1025.95
2023-03-27T02:33:13.902Z,1025.95
2023-03-27T02:34:15.297Z,1025.95
2023-03-27T02:35:16.697Z,1025.95
2023-03-27T02:36:18.089Z,1025.88
2023-03-27T02:37:19.501Z,1025.87
2023-03-27T02:38:20.885Z,1025.93
2023-03-27T02:39:22.334Z,1025.89
2023-03-27T02:40:23.732Z,1025.79
2023-03-27T02:41:25.182Z,1025.87
2023-03-27T02:42:27.380Z,1025.82
2023-03-27T02:43:29.584Z,1025.75
2023-03-27T02:44:31.048Z,1025.76
2023-03-27T02:45:32.494Z,1025.80
2023-03-27T02:46:33.899Z,1025.76
2023-03-27T02:47:35.319Z,1025.73
2023-03-27T02:48:36.732Z,1025.78
2023-03-27T02:49:38.196Z,1025.72
2023-03-27T02:50:39.595Z,1025.77
2023-03-27T02:51:41.047Z,1025.73
2023-03-27T02:52:42.442Z,1025.69
2023-03-27T02:53:43.900Z,1025.66
2023-03-27T02:54:46.142Z,1025.70
2023-03-27T02:55:47.544Z,1025.68
2023-03-27T02:56:48.986Z,1025.67
2023-03-27T02:57:52.611Z,1025.61
2023-03-27T02:58:52.777Z,1025.63
2023-03-27T02:59:55.015Z,1025.63
2023-03-27T03:00:56.666Z,1025.56
2023-03-27T03:01:58.340Z,1025.53
2023-03-27T03:02:59.820Z,1025.55
2023-03-27T03:04:01.312Z,1025.60
2023-03-27T03:05:02.769Z,1025.56
2023-03-27T03:06:04.160Z,1025.51
2023-03-27T03:07:05.562Z,1025.53
2023-03-27T03:08:07.001Z,1025.53
2023-03-27T03:09:08.393Z,1025.52
2023-03-27T03:10:09.924Z,1025.41
2023-03-27T03:11:11.306Z,1025.49
2023-03-27T03:12:12.771Z,1025.38
2023-03-27T03:13:14.162Z,1025.50
2023-03-27T03:14:15.569Z,1025.43
2023-03-27T03:15:16.954Z,1025.52
2023-03-27T03:16:18.350Z,1025.43
2023-03-27T03:17:19.740Z,1025.40
2023-03-27T03:18:21.131Z,1025.42
2023-03-27T03:19:22.535Z,1025.36
2023-03-27T03:20:23.938Z,1025.33
2023-03-27T03:21:25.317Z,1025.36
2023-03-27T03:22:26.727Z,1025.43
2023-03-27T03:23:28.117Z,1025.39
2023-03-27T03:24:30.382Z,1025.33
2023-03-27T03:25:31.901Z,1025.34
2023-03-27T03:26:33.289Z,1025.41
2023-03-27T03:27:34.689Z,1025.31
2023-03-27T03:28:36.071Z,1025.36
2023-03-27T03:29:37.478Z,1025.32
2023-03-27T03:30:39.047Z,1025.32
2023-03-27T03:31:40.492Z,1025.32
2023-03-27T03:32:41.955Z,1025.37
2023-03-27T03:33:43.359Z,1025.34
2023-03-27T03:34:44.758Z,1025.34
2023-03-27T03:35:46.206Z,1025.36
2023-03-27T03:36:47.628Z,1025.27
2023-03-27T03:37:50.672Z,1025.29
2023-03-27T03:38:50.469Z,1025.29
2023-03-27T03:39:51.855Z,1025.23
2023-03-27T03:40:53.253Z,1025.19
2023-03-27T03:41:54.702Z,1025.18
2023-03-27T03:42:56.255Z,1025.12
2023-03-27T03:43:57.657Z,1025.15
2023-03-27T03:44:59.095Z,1025.21
2023-03-27T03:46:00.669Z,1025.19
2023-03-27T03:47:02.111Z,1025.16
2023-03-27T03:48:03.569Z,1025.17
2023-03-27T03:49:05.104Z,1025.19
2023-03-27T03:50:06.484Z,1025.11
2023-03-27T03:51:07.905Z,1025.12
2023-03-27T03:52:09.316Z,1025.14
2023-03-27T03:53:10.707Z,1025.19
2023-03-27T03:54:12.099Z,1025.09
2023-03-27T03:55:14.305Z,1025.10
2023-03-27T03:56:15.866Z,1025.12
2023-03-27T03:57:17.352Z,1025.10
2023-03-27T03:58:18.727Z,1025.10
2023-03-27T03:59:20.127Z,1025.09
2023-03-27T04:00:21.521Z,1025.04
2023-03-27T04:01:22.938Z,1025.11
2023-03-27T04:02:24.368Z,1025.00
2023-03-27T04:03:25.892Z,1025.03
2023-03-27T04:04:27.316Z,1025.04
2023-03-27T04:05:28.705Z,1025.02
2023-03-27T04:06:30.095Z,1025.09
2023-03-27T04:07:31.501Z,1025.09
2023-03-27T04:08:32.941Z,1025.09
2023-03-27T04:09:34.334Z,1025.04
2023-03-27T04:10:35.792Z,1025.01
2023-03-27T04:11:37.197Z,1025.02
2023-03-27T04:12:38.597Z,1025.10
2023-03-27T04:13:39.986Z,1025.04
2023-03-27T04:14:41.383Z,1025.05
2023-03-27T04:15:42.814Z,1025.03
2023-03-27T04:16:44.195Z,1025.04
2023-03-27T04:17:45.679Z,1024.96
2023-03-27T04:18:47.171Z,1024.97
2023-03-27T04:19:48.628Z,1024.94
2023-03-27T04:20:50.035Z,1025.00
2023-03-27T04:21:52.212Z,1025.01
2023-03-27T04:22:54.371Z,1024.94
2023-03-27T04:23:55.837Z,1024.93
2023-03-27T04:24:57.291Z,1024.93
2023-03-27T04:25:58.724Z,1024.92
2023-03-27T04:27:00.125Z,1024.94
2023-03-27T04:28:01.593Z,1024.91
2023-03-27T04:29:03.004Z,1024.93
2023-03-27T04:30:04.397Z,1024.89
2023-03-27T04:31:05.797Z,1024.87
2023-03-27T04:32:07.195Z,1024.89
2023-03-27T04:33:08.602Z,1024.91
2023-03-27T04:34:10.018Z,1025.01
2023-03-27T04:35:11.409Z,1024.96
2023-03-27T04:36:12.813Z,1024.93
2023-03-27T04:37:14.206Z,1024.97
2023-03-27T04:38:15.600Z,1024.91
2023-03-27T04:39:17.010Z,1024.94
2023-03-27T04:40:18.403Z,1024.93
2023-03-27T04:41:19.797Z,1024.96
2023-03-27T04:42:21.197Z,1024.98
2023-03-27T04:43:22.590Z,1024.99
2023-03-27T04:44:24.034Z,1024.95
2023-03-27T04:45:25.425Z,1024.92
2023-03-27T04:46:26.848Z,1024.95
2023-03-27T04:47:28.326Z,1024.95
2023-03-27T04:48:29.734Z,1024.93
2023-03-27T04:49:31.279Z,1024.95
2023-03-27T04:50:32.720Z,1024.86
2023-03-27T04:51:34.121Z,1024.88
2023-03-27T04:52:35.519Z,1024.91
2023-03-27T04:53:36.918Z,1024.85
2023-03-27T04:54:38.312Z,1024.88
2023-03-27T04:55:39.713Z,1024.88
2023-03-27T04:56:41.117Z,1024.86
2023-03-27T04:57:42.495Z,1024.86
2023-03-27T04:58:43.942Z,1024.80
2023-03-27T04:59:45.337Z,1024.74
2023-03-27T05:00:46.811Z,1024.93
2023-03-27T05:01:48.248Z,1024.92
2023-03-27T05:02:49.766Z,1024.86
2023-03-27T05:03:51.192Z,1024.93
2023-03-27T05:04:52.582Z,1024.90
2023-03-27T05:05:54.794Z,1024.94
2023-03-27T05:06:56.190Z,1024.93
2023-03-27T05:07:57.581Z,1024.96
2023-03-27T05:08:58.971Z,1025.02
2023-03-27T05:10:00.363Z,1024.96
2023-03-27T05:11:01.756Z,1024.99
2023-03-27T05:12:03.164Z,1024.89
2023-03-27T05:13:04.617Z,1024.95
2023-03-27T05:14:06.018Z,1024.94
2023-03-27T05:15:08.328Z,1024.94
2023-03-27T05:16:09.761Z,1024.99
2023-03-27T05:17:11.163Z,1024.99
2023-03-27T05:18:12.620Z,1025.01
2023-03-27T05:19:14.083Z,1024.97
2023-03-27T05:20:15.476Z,1024.98
2023-03-27T05:21:16.876Z,1024.93
2023-03-27T05:22:19.134Z,1024.87
2023-03-27T05:23:20.533Z,1024.89
2023-03-27T05:24:21.923Z,1024.91
2023-03-27T05:25:23.315Z,1024.96
2023-03-27T05:26:24.715Z,1024.89
2023-03-27T05:27:26.112Z,1025.00
2023-03-27T05:28:27.504Z,1024.89
2023-03-27T05:29:28.903Z,1024.91
2023-03-27T05:30:30.590Z,1024.84
2023-03-27T05:31:32.829Z,1024.81
2023-03-27T05:32:34.244Z,1024.82
2023-03-27T05:33:35.693Z,1024.86
2023-03-27T05:34:37.086Z,1024.84
2023-03-27T05:35:38.492Z,1024.81
2023-03-27T05:36:39.916Z,1024.92
2023-03-27T05:37:41.331Z,1024.79
2023-03-27T05:38:43.570Z,1024.83
2023-03-27T05:39:44.971Z,1024.76
2023-03-27T05:40:46.360Z,1024.77
2023-03-27T05:41:47.811Z,1024.72
2023-03-27T05:42:49.211Z,1024.69
2023-03-27T05:43:51.340Z,1024.69
2023-03-27T05:44:52.869Z,1024.67
2023-03-27T05:45:54.264Z,1024.69
2023-03-27T05:46:55.726Z,1024.65
2023-03-27T05:47:57.208Z,1024.58
2023-03-27T05:48:59.412Z,1024.69
2023-03-27T05:50:00.797Z,1024.66
2023-03-27T05:51:02.200Z,1024.62
2023-03-27T05:52:03.585Z,1024.62
2023-03-27T05:53:05.109Z,1024.76
2023-03-27T05:54:06.503Z,1024.73
2023-03-27T05:55:07.902Z,1024.79
2023-03-27T05:56:09.293Z,1024.73
2023-03-27T05:57:10.727Z,1024.78
2023-03-27T05:58:12.150Z,1024.81
2023-03-27T05:59:13.589Z,1024.78
2023-03-27T06:00:14.994Z,1024.73
2023-03-27T06:01:16.534Z,1024.78
2023-03-27T06:02:19.151Z,1024.78
2023-03-27T06:03:20.498Z,1024.78
2023-03-27T06:04:22.033Z,1024.71
2023-03-27T06:05:24.238Z,1024.76
2023-03-27T06:06:25.638Z,1024.75
2023-03-27T06:07:27.033Z,1024.68
2023-03-27T06:08:28.443Z,1024.69
2023-03-27T06:09:29.824Z,1024.68
2023-03-27T06:10:31.223Z,1024.70
2023-03-27T06:11:32.631Z,1024.65
2023-03-27T06:12:34.087Z,1024.70
2023-03-27T06:13:35.499Z,1024.59
2023-03-27T06:14:36.874Z,1024.65
2023-03-27T06:15:38.357Z,1024.63
2023-03-27T06:16:39.724Z,1024.58
2023-03-27T06:17:41.202Z,1024.56
2023-03-27T06:18:42.616Z,1024.61
2023-03-27T06:19:44.024Z,1024.64
2023-03-27T06:20:45.425Z,1024.64
2023-03-27T06:21:46.818Z,1024.65
2023-03-27T06:22:48.245Z,1024.68
2023-03-27T06:23:49.702Z,1024.77
2023-03-27T06:24:51.094Z,1024.74
2023-03-27T06:25:52.497Z,1024.68
2023-03-27T06:26:53.904Z,1024.71
2023-03-27T06:27:55.305Z,1024.76
2023-03-27T06:28:56.701Z,1024.74
2023-03-27T06:29:58.166Z,1024.76
2023-03-27T06:30:59.563Z,1024.79
2023-03-27T06:32:00.988Z,1024.75
2023-03-27T06:33:02.459Z,1024.82
2023-03-27T06:34:04.024Z,1024.76
2023-03-27T06:35:05.417Z,1024.74
2023-03-27T06:36:06.857Z,1024.83
2023-03-27T06:37:08.275Z,1024.85
2023-03-27T06:38:09.722Z,1024.85
2023-03-27T06:39:11.202Z,1024.88
2023-03-27T06:40:13.758Z,1024.88
2023-03-27T06:41:15.139Z,1024.85
2023-03-27T06:42:16.538Z,1024.90
2023-03-27T06:43:18.782Z,1024.93
2023-03-27T06:44:20.182Z,1024.90
2023-03-27T06:45:21.583Z,1024.94
2023-03-27T06:46:27.574Z,1024.96
2023-03-27T06:47:25.452Z,1024.93
2023-03-27T06:48:26.843Z,1024.90
2023-03-27T06:49:28.233Z,1024.86
2023-03-27T06:50:29.629Z,1024.93
2023-03-27T06:51:31.019Z,1025.03
2023-03-27T06:52:32.561Z,1025.03
2023-03-27T06:53:36.680Z,1024.91
2023-03-27T06:54:36.335Z,1024.97
2023-03-27T06:55:37.736Z,1025.00
2023-03-27T06:56:39.260Z,1025.05
2023-03-27T06:57:40.684Z,1025.12
2023-03-27T06:58:42.093Z,1025.09
2023-03-27T06:59:43.516Z,1025.04
2023-03-27T07:00:44.912Z,1025.09
2023-03-27T07:01:46.383Z,1025.07
2023-03-27T07:02:47.784Z,1025.13
2023-03-27T07:03:49.228Z,1025.13
2023-03-27T07:05:01.687Z,1025.16
2023-03-27T07:05:53.063Z,1025.13
2023-03-27T07:06:54.458Z,1025.19
2023-03-27T07:07:55.860Z,1025.18
2023-03-27T07:08:57.251Z,1025.19
2023-03-27T07:09:58.711Z,1025.23
2023-03-27T07:11:11.623Z,1025.25
2023-03-27T07:12:02.499Z,1025.23
2023-03-27T07:13:03.900Z,1025.25
2023-03-27T07:14:05.293Z,1025.25
2023-03-27T07:15:06.907Z,1025.27
2023-03-27T07:16:08.344Z,1025.30
2023-03-27T07:17:09.743Z,1025.32
2023-03-27T07:18:11.158Z,1025.30
2023-03-27T07:19:12.582Z,1025.24
2023-03-27T07:20:13.973Z,1025.30
2023-03-27T07:21:15.370Z,1025.30
2023-03-27T07:22:16.766Z,1025.32
2023-03-27T07:23:18.162Z,1025.33
2023-03-27T07:24:19.566Z,1025.25
2023-03-27T07:25:20.964Z,1025.27
2023-03-27T07:26:22.367Z,1025.21
2023-03-27T07:27:23.760Z,1025.21
2023-03-27T07:28:26.011Z,1025.21
2023-03-27T07:29:27.476Z,1025.18
2023-03-27T07:30:28.877Z,1025.09
2023-03-27T07:31:45.135Z,1025.18
2023-03-27T07:32:37.028Z,1025.09
2023-03-27T07:33:35.272Z,1025.10
2023-03-27T07:34:36.718Z,1025.06
2023-03-27T07:35:38.157Z,1025.13
2023-03-27T07:36:39.567Z,1025.17
2023-03-27T07:37:41.089Z,1025.17
2023-03-27T07:38:42.483Z,1025.17
2023-03-27T07:39:44.671Z,1025.13
2023-03-27T07:40:46.353Z,1025.18
2023-03-27T07:41:47.626Z,1025.15
2023-03-27T07:42:49.021Z,1025.18
2023-03-27T07:43:50.479Z,1025.15
2023-03-27T07:44:51.889Z,1025.11
2023-03-27T07:45:53.313Z,1025.11
2023-03-27T07:46:54.753Z,1025.13
2023-03-27T07:47:56.205Z,1025.10
2023-03-27T07:48:57.671Z,1025.14
2023-03-27T07:49:59.063Z,1025.14
2023-03-27T07:51:07.182Z,1025.13
2023-03-27T07:52:02.845Z,1025.12
2023-03-27T07:53:04.239Z,1025.13
2023-03-27T07:54:05.695Z,1025.22
2023-03-27T07:55:07.093Z,1025.11
2023-03-27T07:56:08.673Z,1025.14
2023-03-27T07:57:10.168Z,1025.10
2023-03-27T07:58:11.841Z,1025.14
2023-03-27T07:59:13.281Z,1025.14
2023-03-27T08:00:14.681Z,1025.12
2023-03-27T08:01:16.125Z,1025.06
2023-03-27T08:02:17.532Z,1025.06
2023-03-27T08:03:19.027Z,1025.06
2023-03-27T08:04:20.580Z,1025.09
2023-03-27T08:05:22.073Z,1025.03
2023-03-27T08:06:23.474Z,1024.96
2023-03-27T08:07:24.934Z,1025.06
2023-03-27T08:08:26.334Z,1025.03
2023-03-27T08:09:27.725Z,1024.97
2023-03-27T08:10:29.118Z,1025.02
2023-03-27T08:11:31.394Z,1025.06
2023-03-27T08:12:32.804Z,1025.05
2023-03-27T08:13:34.209Z,1024.98
2023-03-27T08:14:35.610Z,1025.10
2023-03-27T08:15:37.054Z,1025.06
2023-03-27T08:16:38.485Z,1025.05
2023-03-27T08:17:39.980Z,1025.04
2023-03-27T08:18:41.425Z,1025.04
2023-03-27T08:19:42.812Z,1025.01
2023-03-27T08:20:44.205Z,1024.96
2023-03-27T08:21:45.597Z,1024.96
2023-03-27T08:22:47.126Z,1025.07
2023-03-27T08:23:48.477Z,1025.06
2023-03-27T08:24:49.872Z,1025.10
2023-03-27T08:25:51.265Z,1025.06
2023-03-27T08:26:52.678Z,1025.12
2023-03-27T08:27:54.062Z,1025.02
2023-03-27T08:28:55.525Z,1025.00
2023-03-27T08:29:56.936Z,1025.06
2023-03-27T08:31:02.618Z,1025.13
2023-03-27T08:32:01.727Z,1025.04
2023-03-27T08:33:03.147Z,1025.06
2023-03-27T08:34:04.552Z,1025.06
2023-03-27T08:35:05.939Z,1025.10
2023-03-27T08:36:09.902Z,1025.18
2023-03-27T08:37:09.730Z,1025.13
2023-03-27T08:38:23.659Z,1025.16
2023-03-27T08:39:13.514Z,1025.11
2023-03-27T08:40:14.914Z,1025.13
2023-03-27T08:41:16.314Z,1025.10
2023-03-27T08:42:18.921Z,1025.08
2023-03-27T08:43:20.150Z,1025.08
2023-03-27T08:44:21.549Z,1025.08
2023-03-27T08:45:22.991Z,1025.08
2023-03-27T08:46:24.433Z,1025.10
2023-03-27T08:47:25.855Z,1025.10
2023-03-27T08:48:27.312Z,1025.08
2023-03-27T08:49:28.704Z,1025.05
2023-03-27T08:50:30.166Z,1025.08
2023-03-27T08:51:31.559Z,1025.09
2023-03-27T08:52:33.010Z,1025.15
2023-03-27T08:53:34.454Z,1025.07
2023-03-27T08:54:35.839Z,1025.01
2023-03-27T08:55:37.239Z,1025.01
2023-03-27T08:56:38.835Z,1024.95
2023-03-27T08:57:40.216Z,1025.10
2023-03-27T08:58:41.755Z,1025.13
2023-03-27T08:59:43.147Z,1025.21
2023-03-27T09:00:44.542Z,1025.15
2023-03-27T09:01:46.076Z,1025.15
2023-03-27T09:02:47.618Z,1025.12
2023-03-27T09:03:49.072Z,1025.15
2023-03-27T09:04:50.499Z,1025.16
2023-03-27T09:05:51.897Z,1025.17
2023-03-27T09:06:53.316Z,1025.21
2023-03-27T09:07:54.697Z,1025.11
2023-03-27T09:08:56.152Z,1025.07
2023-03-27T09:09:57.546Z,1025.10
2023-03-27T09:10:59.107Z,1025.15
2023-03-27T09:12:00.507Z,1025.15
2023-03-27T09:13:02.025Z,1025.14
2023-03-27T09:14:03.474Z,1025.07
2023-03-27T09:15:04.943Z,1025.14
2023-03-27T09:16:06.386Z,1025.10
2023-03-27T09:17:07.848Z,1025.11
2023-03-27T09:18:09.324Z,1025.13
2023-03-27T09:19:10.884Z,1025.17
2023-03-27T09:20:12.279Z,1025.10
2023-03-27T09:21:13.726Z,1025.03
2023-03-27T09:22:15.134Z,1025.08
2023-03-27T09:23:16.874Z,1024.98
2023-03-27T09:24:18.910Z,1025.04
2023-03-27T09:25:20.324Z,1025.05
2023-03-27T09:26:21.715Z,1025.02
2023-03-27T09:27:23.118Z,1025.05
2023-03-27T09:28:24.516Z,1025.00
2023-03-27T09:29:25.911Z,1025.04
2023-03-27T09:30:27.305Z,1025.07
2023-03-27T09:31:28.730Z,1025.06
2023-03-27T09:32:33.553Z,1025.07
2023-03-27T09:33:32.512Z,1025.04
2023-03-27T09:34:33.909Z,1025.07
2023-03-27T09:35:35.496Z,1025.04
2023-03-27T09:36:37.084Z,1025.07
2023-03-27T09:37:38.479Z,1025.10
2023-03-27T09:38:39.944Z,1025.05
2023-03-27T09:39:41.334Z,1025.10
2023-03-27T09:40:42.728Z,1025.02
2023-03-27T09:41:44.131Z,1025.06
2023-03-27T09:42:45.538Z,1025.07
2023-03-27T09:43:46.925Z,1025.09
2023-03-27T09:44:48.483Z,1025.00
2023-03-27T09:45:49.882Z,1025.13
2023-03-27T09:46:52.188Z,1025.09
2023-03-27T09:47:53.648Z,1025.14
2023-03-27T09:48:55.043Z,1025.07
2023-03-27T09:49:56.446Z,1025.13
2023-03-27T09:50:58.001Z,1025.11
2023-03-27T09:51:59.564Z,1025.10
2023-03-27T09:53:00.953Z,1025.02
2023-03-27T09:54:02.359Z,1025.12
2023-03-27T09:55:03.826Z,1025.11
2023-03-27T09:56:05.224Z,1025.20
2023-03-27T09:57:06.795Z,1025.18
2023-03-27T09:58:08.136Z,1025.18
2023-03-27T09:59:09.648Z,1025.17
2023-03-27T10:00:11.095Z,1025.19
2023-03-27T10:01:12.567Z,1025.29
2023-03-27T10:02:13.981Z,1025.30
2023-03-27T10:03:16.426Z,1025.29
2023-03-27T10:04:17.931Z,1025.20
2023-03-27T10:05:19.372Z,1025.19
2023-03-27T10:06:20.763Z,1025.15
2023-03-27T10:07:22.163Z,1025.19
2023-03-27T10:08:26.670Z,1025.20
2023-03-27T10:09:26.934Z,1025.22
2023-03-27T10:10:28.318Z,1025.24
2023-03-27T10:11:29.725Z,1025.22
2023-03-27T10:12:31.158Z,1025.16
2023-03-27T10:13:32.603Z,1025.06
2023-03-27T10:14:34.011Z,1025.05
2023-03-27T10:15:35.428Z,1025.08
2023-03-27T10:16:36.821Z,1024.97
2023-03-27T10:17:38.278Z,1024.95
2023-03-27T10:18:39.693Z,1024.98
2023-03-27T10:19:41.136Z,1025.08
2023-03-27T10:20:42.520Z,1025.02
2023-03-27T10:21:43.915Z,1025.01
2023-03-27T10:22:45.304Z,1025.02
2023-03-27T10:23:46.818Z,1025.00
2023-03-27T10:24:48.224Z,1025.04
2023-03-27T10:25:49.628Z,1025.03
2023-03-27T10:26:51.018Z,1025.11
2023-03-27T10:27:52.427Z,1025.08
2023-03-27T10:28:53.879Z,1025.10
2023-03-27T10:29:55.279Z,1025.11
2023-03-27T10:30:56.978Z,1025.08
2023-03-27T10:31:58.484Z,1025.05
2023-03-27T10:32:59.921Z,1025.06
2023-03-27T10:34:02.283Z,1025.07
2023-03-27T10:35:03.668Z,1024.98
2023-03-27T10:36:05.110Z,1024.93
2023-03-27T10:37:06.504Z,1024.97
2023-03-27T10:38:07.905Z,1024.90
2023-03-27T10:39:09.300Z,1024.91
2023-03-27T10:40:10.692Z,1024.93
2023-03-27T10:41:12.090Z,1024.98
2023-03-27T10:42:13.540Z,1024.91
2023-03-27T10:43:14.936Z,1024.96
2023-03-27T10:44:16.324Z,1024.97
2023-03-27T10:45:17.726Z,1024.94
2023-03-27T10:46:19.237Z,1025.00
2023-03-27T10:47:20.617Z,1025.06
2023-03-27T10:48:22.144Z,1025.08
2023-03-27T10:49:23.540Z,1025.09
2023-03-27T10:50:24.941Z,1025.07
2023-03-27T10:51:36.032Z,1025.02
2023-03-27T10:52:29.568Z,1025.03
2023-03-27T10:53:31.030Z,1025.06
2023-03-27T10:54:32.520Z,1025.09
2023-03-27T10:55:33.954Z,1025.02
2023-03-27T10:56:35.364Z,1025.04
2023-03-27T10:57:36.784Z,1025.04
2023-03-27T10:58:38.182Z,1025.04
2023-03-27T10:59:42.090Z,1024.99
2023-03-27T11:00:42.817Z,1025.00
2023-03-27T11:01:44.338Z,1025.07
2023-03-27T11:02:45.817Z,1025.02
2023-03-27T11:03:47.233Z,1025.02
2023-03-27T11:04:48.621Z,1024.97
2023-03-27T11:05:50.011Z,1024.98
2023-03-27T11:06:51.405Z,1025.00
2023-03-27T11:07:52.797Z,1025.03
2023-03-27T11:08:54.197Z,1024.97
2023-03-27T11:09:55.650Z,1025.04
2023-03-27T11:10:57.220Z,1024.99
2023-03-27T11:11:58.540Z,1025.05
2023-03-27T11:12:59.939Z,1024.99
2023-03-27T11:14:01.381Z,1025.06
2023-03-27T11:15:02.847Z,1024.97
2023-03-27T11:16:04.237Z,1024.95
2023-03-27T11:17:05.657Z,1024.91
2023-03-27T11:18:07.154Z,1024.94
2023-03-27T11:19:09.364Z,1024.92
2023-03-27T11:20:10.766Z,1024.98
2023-03-27T11:21:12.158Z,1024.90
2023-03-27T11:22:13.552Z,1024.85
2023-03-27T11:23:14.943Z,1024.92
2023-03-27T11:24:16.358Z,1024.90
2023-03-27T11:25:17.739Z,1024.95
2023-03-27T11:26:19.141Z,1024.92
2023-03-27T11:27:20.542Z,1024.97
2023-03-27T11:28:21.932Z,1024.90
2023-03-27T11:29:23.333Z,1024.98
2023-03-27T11:30:25.584Z,1024.88
2023-03-27T11:31:27.042Z,1024.90
2023-03-27T11:32:28.488Z,1024.94
2023-03-27T11:33:29.960Z,1024.96
2023-03-27T11:34:31.371Z,1024.88
2023-03-27T11:35:33.717Z,1024.92
2023-03-27T11:36:35.229Z,1024.91
2023-03-27T11:37:36.676Z,1024.88
2023-03-27T11:38:38.884Z,1024.89
2023-03-27T11:39:40.306Z,1024.88
2023-03-27T11:40:41.705Z,1024.83
2023-03-27T11:41:43.100Z,1024.83
2023-03-27T11:42:44.496Z,1024.82
2023-03-27T11:43:45.953Z,1024.87
2023-03-27T11:44:47.362Z,1024.92
2023-03-27T11:45:48.793Z,1024.82
2023-03-27T11:46:50.223Z,1024.86
2023-03-27T11:47:51.647Z,1024.79
2023-03-27T11:48:53.052Z,1024.86
2023-03-27T11:49:54.451Z,1024.85
2023-03-27T11:50:55.997Z,1024.78
2023-03-27T11:51:57.618Z,1024.82
2023-03-27T11:52:59.089Z,1024.79
2023-03-27T11:54:00.490Z,1024.84
2023-03-27T11:55:01.950Z,1024.79
2023-03-27T11:56:03.348Z,1024.80
2023-03-27T11:57:04.814Z,1024.68
2023-03-27T11:58:06.195Z,1024.70
2023-03-27T11:59:07.597Z,1024.75
2023-03-27T12:00:08.988Z,1024.79
2023-03-27T12:01:10.402Z,1024.84
2023-03-27T12:02:11.836Z,1024.79
2023-03-27T12:03:13.338Z,1024.81
2023-03-27T12:04:14.869Z,1024.82
2023-03-27T12:05:16.285Z,1024.84
2023-03-27T12:06:17.686Z,1024.73
2023-03-27T12:07:34.044Z,1024.70
2023-03-27T12:08:21.496Z,1024.74
2023-03-27T12:09:22.919Z,1024.73
2023-03-27T12:10:28.514Z,1024.62
2023-03-27T12:11:26.706Z,1024.76
2023-03-27T12:12:28.107Z,1024.73
2023-03-27T12:13:40.615Z,1024.67
2023-03-27T12:14:40.871Z,1024.70
2023-03-27T12:15:35.080Z,1024.73
2023-03-27T12:16:36.531Z,1024.73
2023-03-27T12:17:37.945Z,1024.70
2023-03-27T12:18:41.412Z,1024.61
2023-03-27T12:19:41.732Z,1024.70
2023-03-27T12:20:58.784Z,1024.70
2023-03-27T12:21:44.602Z,1024.73
2023-03-27T12:22:45.998Z,1024.68
2023-03-27T12:23:47.419Z,1024.65